sensor_id;sensor_type;location;lat;lon;timestamp;P1;durP1;ratioP1;P2;durP2;ratioP2
27804;SDS011;15183;51.350;11.102;2022-10-15T00:01:09;5.60;;;4.13;;
27804;SDS011;15183;51.350;11.102;2022-10-15T00:03:39;2.65;;;2.38;;
27804;SDS011;15183;51.350;11.102;2022-10-15T00:06:17;2.20;;;1.95;;
27804;SDS011;15183;51.350;11.102;2022-10-15T00:08:46;2.67;;;2.28;;
27804;SDS011;15183;51.350;11.102;2022-10-15T00:11:14;3.65;;;2.75;;
27804;SDS011;15183;51.350;11.102;2022-10-15T00:13:47;2.40;;;2.20;;
27804;SDS011;15183;51.350;11.102;2022-10-15T00:16:16;3.45;;;3.08;;
27804;SDS011;15183;51.350;11.102;2022-10-15T00:18:46;3.88;;;2.72;;
27804;SDS011;15183;51.350;11.102;2022-10-15T00:21:14;4.70;;;3.13;;
27804;SDS011;15183;51.350;11.102;2022-10-15T00:23:43;3.95;;;3.35;;
27804;SDS011;15183;51.350;11.102;2022-10-15T00:26:11;3.95;;;3.22;;
27804;SDS011;15183;51.350;11.102;2022-10-15T00:28:41;3.47;;;3.05;;
27804;SDS011;15183;51.350;11.102;2022-10-15T00:31:08;2.90;;;2.20;;
27804;SDS011;15183;51.350;11.102;2022-10-15T00:33:37;3.65;;;3.25;;
27804;SDS011;15183;51.350;11.102;2022-10-15T00:36:05;5.55;;;3.63;;
27804;SDS011;15183;51.350;11.102;2022-10-15T00:38:36;4.15;;;3.67;;
27804;SDS011;15183;51.350;11.102;2022-10-15T00:41:04;6.20;;;4.80;;
27804;SDS011;15183;51.350;11.102;2022-10-15T00:46:38;4.97;;;4.03;;
27804;SDS011;15183;51.350;11.102;2022-10-15T00:51:56;3.20;;;2.90;;
27804;SDS011;15183;51.350;11.102;2022-10-15T00:54:58;2.58;;;1.90;;
27804;SDS011;15183;51.350;11.102;2022-10-15T00:57:38;2.47;;;2.10;;
27804;SDS011;15183;51.350;11.102;2022-10-15T01:00:07;2.05;;;1.85;;
27804;SDS011;15183;51.350;11.102;2022-10-15T01:02:37;2.47;;;2.28;;
27804;SDS011;15183;51.350;11.102;2022-10-15T01:05:04;3.28;;;2.22;;
27804;SDS011;15183;51.350;11.102;2022-10-15T01:07:31;2.38;;;2.17;;
27804;SDS011;15183;51.350;11.102;2022-10-15T01:09:58;2.53;;;2.10;;
27804;SDS011;15183;51.350;11.102;2022-10-15T01:17:56;3.22;;;2.53;;
27804;SDS011;15183;51.350;11.102;2022-10-15T01:23:36;2.75;;;2.47;;
27804;SDS011;15183;51.350;11.102;2022-10-15T01:27:04;2.00;;;1.80;;
27804;SDS011;15183;51.350;11.102;2022-10-15T01:32:59;1.55;;;1.45;;
27804;SDS011;15183;51.350;11.102;2022-10-15T01:35:44;2.10;;;1.77;;
27804;SDS011;15183;51.350;11.102;2022-10-15T01:44:15;1.15;;;1.08;;
27804;SDS011;15183;51.350;11.102;2022-10-15T01:46:52;1.30;;;1.10;;
27804;SDS011;15183;51.350;11.102;2022-10-15T01:49:38;1.00;;;1.00;;
27804;SDS011;15183;51.350;11.102;2022-10-15T01:52:13;0.98;;;0.88;;
27804;SDS011;15183;51.350;11.102;2022-10-15T01:54:47;1.52;;;0.98;;
27804;SDS011;15183;51.350;11.102;2022-10-15T01:57:15;1.60;;;1.50;;
27804;SDS011;15183;51.350;11.102;2022-10-15T01:59:44;2.88;;;2.08;;
27804;SDS011;15183;51.350;11.102;2022-10-15T02:02:11;1.60;;;1.50;;
27804;SDS011;15183;51.350;11.102;2022-10-15T02:04:38;2.28;;;1.30;;
27804;SDS011;15183;51.350;11.102;2022-10-15T02:07:06;1.73;;;1.55;;
27804;SDS011;15183;51.350;11.102;2022-10-15T02:13:07;2.22;;;1.73;;
27804;SDS011;15183;51.350;11.102;2022-10-15T02:19:11;1.35;;;1.25;;
27804;SDS011;15183;51.350;11.102;2022-10-15T02:21:55;1.20;;;1.10;;
27804;SDS011;15183;51.350;11.102;2022-10-15T02:24:27;1.40;;;1.30;;
27804;SDS011;15183;51.350;11.102;2022-10-15T02:27:02;2.95;;;2.53;;
27804;SDS011;15183;51.350;11.102;2022-10-15T02:29:31;1.85;;;1.70;;
27804;SDS011;15183;51.350;11.102;2022-10-15T02:32:01;1.58;;;1.48;;
27804;SDS011;15183;51.350;11.102;2022-10-15T02:34:30;2.22;;;1.65;;
27804;SDS011;15183;51.350;11.102;2022-10-15T02:37:02;1.10;;;1.02;;
27804;SDS011;15183;51.350;11.102;2022-10-15T02:39:33;1.67;;;1.58;;
27804;SDS011;15183;51.350;11.102;2022-10-15T02:41:59;1.33;;;1.23;;
27804;SDS011;15183;51.350;11.102;2022-10-15T02:44:26;2.38;;;1.50;;
27804;SDS011;15183;51.350;11.102;2022-10-15T02:46:53;3.03;;;2.15;;
27804;SDS011;15183;51.350;11.102;2022-10-15T02:49:22;1.98;;;1.08;;
27804;SDS011;15183;51.350;11.102;2022-10-15T02:51:48;0.80;;;0.80;;
27804;SDS011;15183;51.350;11.102;2022-10-15T02:54:15;0.70;;;0.70;;
27804;SDS011;15183;51.350;11.102;2022-10-15T02:56:41;1.10;;;0.90;;
27804;SDS011;15183;51.350;11.102;2022-10-15T02:59:08;1.75;;;0.68;;
27804;SDS011;15183;51.350;11.102;2022-10-15T03:01:35;1.20;;;1.10;;
27804;SDS011;15183;51.350;11.102;2022-10-15T03:04:01;3.17;;;2.60;;
27804;SDS011;15183;51.350;11.102;2022-10-15T03:06:28;3.08;;;2.78;;
27804;SDS011;15183;51.350;11.102;2022-10-15T03:08:54;2.53;;;2.25;;
27804;SDS011;15183;51.350;11.102;2022-10-15T03:11:21;1.80;;;1.70;;
27804;SDS011;15183;51.350;11.102;2022-10-15T03:13:47;2.83;;;2.50;;
27804;SDS011;15183;51.350;11.102;2022-10-15T03:16:14;2.83;;;2.13;;
27804;SDS011;15183;51.350;11.102;2022-10-15T03:18:40;1.63;;;1.20;;
27804;SDS011;15183;51.350;11.102;2022-10-15T03:21:06;3.80;;;2.67;;
27804;SDS011;15183;51.350;11.102;2022-10-15T03:23:33;3.70;;;2.72;;
27804;SDS011;15183;51.350;11.102;2022-10-15T03:26:00;1.80;;;1.70;;
27804;SDS011;15183;51.350;11.102;2022-10-15T03:28:26;2.20;;;2.00;;
27804;SDS011;15183;51.350;11.102;2022-10-15T03:30:53;3.78;;;3.10;;
27804;SDS011;15183;51.350;11.102;2022-10-15T03:33:20;3.22;;;2.55;;
27804;SDS011;15183;51.350;11.102;2022-10-15T03:35:46;2.33;;;1.85;;
27804;SDS011;15183;51.350;11.102;2022-10-15T03:38:12;2.17;;;2.05;;
27804;SDS011;15183;51.350;11.102;2022-10-15T03:40:39;5.90;;;2.78;;
27804;SDS011;15183;51.350;11.102;2022-10-15T03:43:05;1.30;;;1.23;;
27804;SDS011;15183;51.350;11.102;2022-10-15T03:45:32;2.35;;;2.15;;
27804;SDS011;15183;51.350;11.102;2022-10-15T03:47:58;3.33;;;3.03;;
27804;SDS011;15183;51.350;11.102;2022-10-15T03:50:24;2.28;;;1.95;;
27804;SDS011;15183;51.350;11.102;2022-10-15T03:52:51;0.88;;;0.88;;
27804;SDS011;15183;51.350;11.102;2022-10-15T03:55:17;1.90;;;1.42;;
27804;SDS011;15183;51.350;11.102;2022-10-15T03:57:44;1.48;;;1.30;;
27804;SDS011;15183;51.350;11.102;2022-10-15T04:00:11;2.53;;;2.13;;
27804;SDS011;15183;51.350;11.102;2022-10-15T04:02:39;2.30;;;2.08;;
27804;SDS011;15183;51.350;11.102;2022-10-15T04:05:05;2.75;;;2.33;;
27804;SDS011;15183;51.350;11.102;2022-10-15T04:07:32;1.98;;;1.83;;
27804;SDS011;15183;51.350;11.102;2022-10-15T04:09:58;3.25;;;2.42;;
27804;SDS011;15183;51.350;11.102;2022-10-15T04:12:24;3.22;;;2.42;;
27804;SDS011;15183;51.350;11.102;2022-10-15T04:14:51;1.85;;;1.75;;
27804;SDS011;15183;51.350;11.102;2022-10-15T04:17:17;2.38;;;1.75;;
27804;SDS011;15183;51.350;11.102;2022-10-15T04:19:44;1.35;;;1.20;;
27804;SDS011;15183;51.350;11.102;2022-10-15T04:22:10;0.50;;;0.50;;
27804;SDS011;15183;51.350;11.102;2022-10-15T04:24:37;1.50;;;1.40;;
27804;SDS011;15183;51.350;11.102;2022-10-15T04:27:03;2.15;;;1.67;;
27804;SDS011;15183;51.350;11.102;2022-10-15T04:29:30;1.52;;;1.42;;
27804;SDS011;15183;51.350;11.102;2022-10-15T04:31:58;1.95;;;1.60;;
27804;SDS011;15183;51.350;11.102;2022-10-15T04:34:25;2.28;;;1.75;;
27804;SDS011;15183;51.350;11.102;2022-10-15T04:36:51;3.80;;;2.00;;
27804;SDS011;15183;51.350;11.102;2022-10-15T04:39:18;2.15;;;1.90;;
27804;SDS011;15183;51.350;11.102;2022-10-15T04:41:44;2.15;;;1.60;;
27804;SDS011;15183;51.350;11.102;2022-10-15T04:44:11;1.70;;;1.60;;
27804;SDS011;15183;51.350;11.102;2022-10-15T04:46:41;2.97;;;2.60;;
27804;SDS011;15183;51.350;11.102;2022-10-15T04:49:16;8.02;;;2.00;;
27804;SDS011;15183;51.350;11.102;2022-10-15T04:51:43;2.40;;;2.20;;
27804;SDS011;15183;51.350;11.102;2022-10-15T04:54:12;2.10;;;1.90;;
27804;SDS011;15183;51.350;11.102;2022-10-15T04:56:38;7.15;;;3.72;;
27804;SDS011;15183;51.350;11.102;2022-10-15T04:59:05;6.30;;;4.93;;
27804;SDS011;15183;51.350;11.102;2022-10-15T05:01:33;4.70;;;3.78;;
27804;SDS011;15183;51.350;11.102;2022-10-15T05:03:59;5.28;;;4.50;;
27804;SDS011;15183;51.350;11.102;2022-10-15T05:06:26;5.30;;;3.10;;
27804;SDS011;15183;51.350;11.102;2022-10-15T05:08:53;3.72;;;3.20;;
27804;SDS011;15183;51.350;11.102;2022-10-15T05:11:23;6.82;;;4.43;;
27804;SDS011;15183;51.350;11.102;2022-10-15T05:13:53;14.95;;;8.52;;
27804;SDS011;15183;51.350;11.102;2022-10-15T05:16:22;11.30;;;8.05;;
27804;SDS011;15183;51.350;11.102;2022-10-15T05:18:52;6.20;;;5.47;;
27804;SDS011;15183;51.350;11.102;2022-10-15T05:21:22;5.82;;;4.03;;
27804;SDS011;15183;51.350;11.102;2022-10-15T05:23:49;4.97;;;4.18;;
27804;SDS011;15183;51.350;11.102;2022-10-15T05:26:17;4.72;;;3.92;;
27804;SDS011;15183;51.350;11.102;2022-10-15T05:28:47;3.72;;;3.33;;
27804;SDS011;15183;51.350;11.102;2022-10-15T05:31:16;3.60;;;3.30;;
27804;SDS011;15183;51.350;11.102;2022-10-15T05:33:46;3.50;;;3.20;;
27804;SDS011;15183;51.350;11.102;2022-10-15T05:36:15;5.85;;;3.50;;
27804;SDS011;15183;51.350;11.102;2022-10-15T05:41:21;4.25;;;3.85;;
27804;SDS011;15183;51.350;11.102;2022-10-15T05:43:49;4.72;;;3.75;;
27804;SDS011;15183;51.350;11.102;2022-10-15T05:46:16;4.38;;;3.97;;
27804;SDS011;15183;51.350;11.102;2022-10-15T05:48:48;5.93;;;3.92;;
27804;SDS011;15183;51.350;11.102;2022-10-15T05:51:20;4.35;;;3.40;;
27804;SDS011;15183;51.350;11.102;2022-10-15T05:53:55;3.97;;;3.60;;
27804;SDS011;15183;51.350;11.102;2022-10-15T05:56:23;5.22;;;3.50;;
27804;SDS011;15183;51.350;11.102;2022-10-15T05:58:51;3.50;;;2.70;;
27804;SDS011;15183;51.350;11.102;2022-10-15T06:01:17;3.95;;;3.15;;
27804;SDS011;15183;51.350;11.102;2022-10-15T06:03:44;5.70;;;4.90;;
27804;SDS011;15183;51.350;11.102;2022-10-15T06:06:21;8.02;;;5.90;;
27804;SDS011;15183;51.350;11.102;2022-10-15T06:08:50;8.45;;;6.10;;
27804;SDS011;15183;51.350;11.102;2022-10-15T06:11:17;7.72;;;5.43;;
27804;SDS011;15183;51.350;11.102;2022-10-15T06:13:44;4.80;;;4.30;;
27804;SDS011;15183;51.350;11.102;2022-10-15T06:16:11;3.33;;;3.03;;
27804;SDS011;15183;51.350;11.102;2022-10-15T06:18:40;4.30;;;3.55;;
27804;SDS011;15183;51.350;11.102;2022-10-15T06:21:06;4.78;;;3.83;;
27804;SDS011;15183;51.350;11.102;2022-10-15T06:23:35;7.38;;;6.35;;
27804;SDS011;15183;51.350;11.102;2022-10-15T06:26:04;8.75;;;5.28;;
27804;SDS011;15183;51.350;11.102;2022-10-15T06:28:34;6.18;;;5.20;;
27804;SDS011;15183;51.350;11.102;2022-10-15T06:31:01;10.55;;;7.57;;
27804;SDS011;15183;51.350;11.102;2022-10-15T06:33:29;6.95;;;5.47;;
27804;SDS011;15183;51.350;11.102;2022-10-15T06:36:00;3.92;;;3.53;;
27804;SDS011;15183;51.350;11.102;2022-10-15T06:38:34;4.10;;;3.70;;
27804;SDS011;15183;51.350;11.102;2022-10-15T06:41:03;3.97;;;3.58;;
27804;SDS011;15183;51.350;11.102;2022-10-15T06:43:31;3.00;;;2.80;;
27804;SDS011;15183;51.350;11.102;2022-10-15T06:45:58;3.47;;;2.72;;
27804;SDS011;15183;51.350;11.102;2022-10-15T06:48:25;4.25;;;3.38;;
27804;SDS011;15183;51.350;11.102;2022-10-15T06:50:52;2.85;;;2.65;;
27804;SDS011;15183;51.350;11.102;2022-10-15T06:53:18;4.55;;;4.10;;
27804;SDS011;15183;51.350;11.102;2022-10-15T06:55:47;7.82;;;4.57;;
27804;SDS011;15183;51.350;11.102;2022-10-15T06:58:13;6.50;;;5.78;;
27804;SDS011;15183;51.350;11.102;2022-10-15T07:00:39;5.97;;;5.30;;
27804;SDS011;15183;51.350;11.102;2022-10-15T07:03:06;5.22;;;4.70;;
27804;SDS011;15183;51.350;11.102;2022-10-15T07:05:33;5.15;;;4.63;;
27804;SDS011;15183;51.350;11.102;2022-10-15T07:08:00;4.82;;;4.13;;
27804;SDS011;15183;51.350;11.102;2022-10-15T07:10:27;5.70;;;5.10;;
27804;SDS011;15183;51.350;11.102;2022-10-15T07:12:54;4.55;;;4.10;;
27804;SDS011;15183;51.350;11.102;2022-10-15T07:15:20;4.40;;;3.47;;
27804;SDS011;15183;51.350;11.102;2022-10-15T07:17:47;8.25;;;6.65;;
27804;SDS011;15183;51.350;11.102;2022-10-15T07:20:26;6.50;;;4.88;;
27804;SDS011;15183;51.350;11.102;2022-10-15T07:22:55;5.60;;;4.18;;
27804;SDS011;15183;51.350;11.102;2022-10-15T07:25:23;4.13;;;3.72;;
27804;SDS011;15183;51.350;11.102;2022-10-15T07:27:51;7.07;;;4.43;;
27804;SDS011;15183;51.350;11.102;2022-10-15T07:30:17;5.43;;;4.00;;
27804;SDS011;15183;51.350;11.102;2022-10-15T07:32:44;4.43;;;3.65;;
27804;SDS011;15183;51.350;11.102;2022-10-15T07:35:13;4.78;;;3.65;;
27804;SDS011;15183;51.350;11.102;2022-10-15T07:37:40;6.22;;;5.05;;
27804;SDS011;15183;51.350;11.102;2022-10-15T07:40:06;12.30;;;8.25;;
27804;SDS011;15183;51.350;11.102;2022-10-15T07:42:39;11.50;;;8.80;;
27804;SDS011;15183;51.350;11.102;2022-10-15T07:45:06;14.82;;;10.77;;
27804;SDS011;15183;51.350;11.102;2022-10-15T07:47:34;7.45;;;5.65;;
27804;SDS011;15183;51.350;11.102;2022-10-15T07:50:00;4.28;;;3.40;;
27804;SDS011;15183;51.350;11.102;2022-10-15T07:52:27;3.45;;;3.15;;
27804;SDS011;15183;51.350;11.102;2022-10-15T07:54:53;3.78;;;3.20;;
27804;SDS011;15183;51.350;11.102;2022-10-15T07:57:20;3.97;;;2.80;;
27804;SDS011;15183;51.350;11.102;2022-10-15T07:59:46;9.98;;;7.95;;
27804;SDS011;15183;51.350;11.102;2022-10-15T08:02:16;5.57;;;4.97;;
27804;SDS011;15183;51.350;11.102;2022-10-15T08:04:44;4.00;;;3.00;;
27804;SDS011;15183;51.350;11.102;2022-10-15T08:07:10;3.53;;;3.05;;
27804;SDS011;15183;51.350;11.102;2022-10-15T08:09:37;3.00;;;2.00;;
27804;SDS011;15183;51.350;11.102;2022-10-15T08:12:04;5.30;;;3.50;;
27804;SDS011;15183;51.350;11.102;2022-10-15T08:14:32;2.38;;;2.17;;
27804;SDS011;15183;51.350;11.102;2022-10-15T08:17:03;2.05;;;1.77;;
27804;SDS011;15183;51.350;11.102;2022-10-15T08:19:31;8.55;;;6.00;;
27804;SDS011;15183;51.350;11.102;2022-10-15T08:21:58;11.45;;;9.10;;
27804;SDS011;15183;51.350;11.102;2022-10-15T08:24:24;5.80;;;3.83;;
27804;SDS011;15183;51.350;11.102;2022-10-15T08:26:50;13.52;;;9.63;;
27804;SDS011;15183;51.350;11.102;2022-10-15T08:29:17;6.32;;;5.00;;
27804;SDS011;15183;51.350;11.102;2022-10-15T08:31:43;6.95;;;5.35;;
27804;SDS011;15183;51.350;11.102;2022-10-15T08:34:10;8.35;;;6.95;;
27804;SDS011;15183;51.350;11.102;2022-10-15T08:36:36;4.35;;;3.58;;
27804;SDS011;15183;51.350;11.102;2022-10-15T08:39:03;9.25;;;7.43;;
27804;SDS011;15183;51.350;11.102;2022-10-15T08:46:58;3.05;;;2.55;;
27804;SDS011;15183;51.350;11.102;2022-10-15T08:49:46;10.48;;;7.80;;
27804;SDS011;15183;51.350;11.102;2022-10-15T08:55:17;3.10;;;2.22;;
27804;SDS011;15183;51.350;11.102;2022-10-15T09:00:30;10.27;;;6.00;;
27804;SDS011;15183;51.350;11.102;2022-10-15T09:09:04;6.50;;;3.95;;
27804;SDS011;15183;51.350;11.102;2022-10-15T09:15:33;6.40;;;5.10;;
27804;SDS011;15183;51.350;11.102;2022-10-15T09:18:16;4.35;;;3.58;;
27804;SDS011;15183;51.350;11.102;2022-10-15T09:20:48;2.08;;;1.80;;
27804;SDS011;15183;51.350;11.102;2022-10-15T09:23:16;3.13;;;2.67;;
27804;SDS011;15183;51.350;11.102;2022-10-15T09:25:55;7.88;;;5.80;;
27804;SDS011;15183;51.350;11.102;2022-10-15T09:31:49;4.95;;;3.80;;
27804;SDS011;15183;51.350;11.102;2022-10-15T09:34:40;7.68;;;6.15;;
27804;SDS011;15183;51.350;11.102;2022-10-15T09:37:35;9.32;;;7.05;;
27804;SDS011;15183;51.350;11.102;2022-10-15T09:43:09;3.83;;;2.70;;
27804;SDS011;15183;51.350;11.102;2022-10-15T09:45:37;7.40;;;5.85;;
27804;SDS011;15183;51.350;11.102;2022-10-15T09:48:11;5.32;;;4.45;;
27804;SDS011;15183;51.350;11.102;2022-10-15T09:50:44;8.95;;;6.07;;
27804;SDS011;15183;51.350;11.102;2022-10-15T09:59:14;7.20;;;4.00;;
27804;SDS011;15183;51.350;11.102;2022-10-15T10:01:27;3.95;;;3.55;;
27804;SDS011;15183;51.350;11.102;2022-10-15T10:04:13;7.30;;;5.43;;
27804;SDS011;15183;51.350;11.102;2022-10-15T10:06:52;3.83;;;3.10;;
27804;SDS011;15183;51.350;11.102;2022-10-15T10:09:23;4.03;;;3.65;;
27804;SDS011;15183;51.350;11.102;2022-10-15T10:12:03;6.50;;;5.30;;
27804;SDS011;15183;51.350;11.102;2022-10-15T10:14:55;7.13;;;4.38;;
27804;SDS011;15183;51.350;11.102;2022-10-15T10:17:54;4.70;;;3.17;;
27804;SDS011;15183;51.350;11.102;2022-10-15T10:20:28;3.05;;;2.25;;
27804;SDS011;15183;51.350;11.102;2022-10-15T10:22:57;2.60;;;2.40;;
27804;SDS011;15183;51.350;11.102;2022-10-15T10:30:38;1.20;;;0.70;;
27804;SDS011;15183;51.350;11.102;2022-10-15T10:33:25;2.83;;;1.40;;
27804;SDS011;15183;51.350;11.102;2022-10-15T10:36:05;2.97;;;2.70;;
27804;SDS011;15183;51.350;11.102;2022-10-15T10:38:34;1.55;;;1.45;;
27804;SDS011;15183;51.350;11.102;2022-10-15T10:41:06;1.42;;;1.33;;
27804;SDS011;15183;51.350;11.102;2022-10-15T10:43:35;1.45;;;1.35;;
27804;SDS011;15183;51.350;11.102;2022-10-15T10:46:18;2.15;;;1.70;;
27804;SDS011;15183;51.350;11.102;2022-10-15T10:48:48;3.17;;;2.72;;
27804;SDS011;15183;51.350;11.102;2022-10-15T10:53:55;2.38;;;1.98;;
27804;SDS011;15183;51.350;11.102;2022-10-15T10:56:30;2.70;;;1.40;;
27804;SDS011;15183;51.350;11.102;2022-10-15T10:59:11;14.55;;;10.85;;
27804;SDS011;15183;51.350;11.102;2022-10-15T11:01:55;18.55;;;14.07;;
27804;SDS011;15183;51.350;11.102;2022-10-15T11:04:23;10.25;;;7.90;;
27804;SDS011;15183;51.350;11.102;2022-10-15T11:18:03;6.38;;;5.20;;
27804;SDS011;15183;51.350;11.102;2022-10-15T11:32:39;4.07;;;3.50;;
27804;SDS011;15183;51.350;11.102;2022-10-15T11:41:31;5.03;;;3.13;;
27804;SDS011;15183;51.350;11.102;2022-10-15T11:44:36;2.65;;;2.40;;
27804;SDS011;15183;51.350;11.102;2022-10-15T11:47:33;1.63;;;1.45;;
27804;SDS011;15183;51.350;11.102;2022-10-15T11:56:09;3.58;;;3.25;;
27804;SDS011;15183;51.350;11.102;2022-10-15T12:02:33;2.22;;;1.88;;
27804;SDS011;15183;51.350;11.102;2022-10-15T12:05:06;1.33;;;1.23;;
27804;SDS011;15183;51.350;11.102;2022-10-15T12:07:40;1.90;;;1.77;;
27804;SDS011;15183;51.350;11.102;2022-10-15T12:13:11;1.00;;;0.80;;
27804;SDS011;15183;51.350;11.102;2022-10-15T12:15:44;2.70;;;2.13;;
27804;SDS011;15183;51.350;11.102;2022-10-15T12:18:37;4.32;;;3.10;;
27804;SDS011;15183;51.350;11.102;2022-10-15T12:21:29;1.55;;;1.00;;
27804;SDS011;15183;51.350;11.102;2022-10-15T12:23:58;4.88;;;3.50;;
27804;SDS011;15183;51.350;11.102;2022-10-15T12:26:30;3.30;;;2.60;;
27804;SDS011;15183;51.350;11.102;2022-10-15T12:29:05;3.00;;;2.30;;
27804;SDS011;15183;51.350;11.102;2022-10-15T12:31:54;2.10;;;1.90;;
27804;SDS011;15183;51.350;11.102;2022-10-15T12:34:26;3.13;;;2.70;;
27804;SDS011;15183;51.350;11.102;2022-10-15T12:37:03;2.75;;;2.50;;
27804;SDS011;15183;51.350;11.102;2022-10-15T12:39:40;3.20;;;2.90;;
27804;SDS011;15183;51.350;11.102;2022-10-15T12:42:18;1.38;;;1.27;;
27804;SDS011;15183;51.350;11.102;2022-10-15T12:45:16;1.25;;;1.00;;
27804;SDS011;15183;51.350;11.102;2022-10-15T12:50:31;2.55;;;2.03;;
27804;SDS011;15183;51.350;11.102;2022-10-15T12:53:04;1.80;;;1.70;;
27804;SDS011;15183;51.350;11.102;2022-10-15T12:58:36;2.15;;;1.48;;
27804;SDS011;15183;51.350;11.102;2022-10-15T13:01:05;2.20;;;1.73;;
27804;SDS011;15183;51.350;11.102;2022-10-15T13:04:14;1.58;;;1.48;;
27804;SDS011;15183;51.350;11.102;2022-10-15T13:06:41;0.93;;;0.80;;
27804;SDS011;15183;51.350;11.102;2022-10-15T13:11:53;0.90;;;0.90;;
27804;SDS011;15183;51.350;11.102;2022-10-15T13:14:30;2.08;;;1.88;;
27804;SDS011;15183;51.350;11.102;2022-10-15T13:17:15;1.23;;;1.13;;
27804;SDS011;15183;51.350;11.102;2022-10-15T13:19:46;2.97;;;1.23;;
27804;SDS011;15183;51.350;11.102;2022-10-15T13:22:26;1.23;;;1.08;;
27804;SDS011;15183;51.350;11.102;2022-10-15T13:24:55;1.58;;;1.27;;
27804;SDS011;15183;51.350;11.102;2022-10-15T13:27:35;0.77;;;0.77;;
27804;SDS011;15183;51.350;11.102;2022-10-15T13:32:35;0.73;;;0.70;;
27804;SDS011;15183;51.350;11.102;2022-10-15T13:35:12;1.55;;;0.88;;
27804;SDS011;15183;51.350;11.102;2022-10-15T13:37:49;2.25;;;1.40;;
27804;SDS011;15183;51.350;11.102;2022-10-15T13:40:19;1.70;;;1.45;;
27804;SDS011;15183;51.350;11.102;2022-10-15T13:42:56;0.85;;;0.60;;
27804;SDS011;15183;51.350;11.102;2022-10-15T13:45:59;0.63;;;0.50;;
27804;SDS011;15183;51.350;11.102;2022-10-15T13:48:27;0.80;;;0.80;;
27804;SDS011;15183;51.350;11.102;2022-10-15T13:56:03;1.30;;;1.20;;
27804;SDS011;15183;51.350;11.102;2022-10-15T13:58:44;2.03;;;1.02;;
27804;SDS011;15183;51.350;11.102;2022-10-15T14:03:56;2.40;;;2.20;;
27804;SDS011;15183;51.350;11.102;2022-10-15T14:08:56;0.55;;;0.55;;
27804;SDS011;15183;51.350;11.102;2022-10-15T14:11:39;3.03;;;2.17;;
27804;SDS011;15183;51.350;11.102;2022-10-15T14:14:25;1.42;;;1.17;;
27804;SDS011;15183;51.350;11.102;2022-10-15T14:17:02;1.40;;;1.30;;
27804;SDS011;15183;51.350;11.102;2022-10-15T14:19:45;1.05;;;1.05;;
27804;SDS011;15183;51.350;11.102;2022-10-15T14:22:49;2.05;;;1.92;;
27804;SDS011;15183;51.350;11.102;2022-10-15T14:25:19;1.85;;;1.58;;
27804;SDS011;15183;51.350;11.102;2022-10-15T14:27:49;0.60;;;0.60;;
27804;SDS011;15183;51.350;11.102;2022-10-15T14:30:21;0.68;;;0.68;;
27804;SDS011;15183;51.350;11.102;2022-10-15T14:32:56;0.68;;;0.68;;
27804;SDS011;15183;51.350;11.102;2022-10-15T14:35:24;0.80;;;0.80;;
27804;SDS011;15183;51.350;11.102;2022-10-15T14:37:57;4.20;;;1.20;;
27804;SDS011;15183;51.350;11.102;2022-10-15T14:40:26;1.30;;;1.20;;
27804;SDS011;15183;51.350;11.102;2022-10-15T14:48:21;1.10;;;1.08;;
27804;SDS011;15183;51.350;11.102;2022-10-15T14:50:55;1.33;;;1.10;;
27804;SDS011;15183;51.350;11.102;2022-10-15T14:53:35;1.73;;;1.42;;
27804;SDS011;15183;51.350;11.102;2022-10-15T14:56:12;1.27;;;0.75;;
27804;SDS011;15183;51.350;11.102;2022-10-15T14:58:47;1.15;;;1.05;;
27804;SDS011;15183;51.350;11.102;2022-10-15T15:01:21;1.27;;;1.17;;
27804;SDS011;15183;51.350;11.102;2022-10-15T15:03:50;1.23;;;0.95;;
27804;SDS011;15183;51.350;11.102;2022-10-15T15:06:23;2.47;;;0.93;;
27804;SDS011;15183;51.350;11.102;2022-10-15T15:08:50;1.10;;;1.00;;
27804;SDS011;15183;51.350;11.102;2022-10-15T15:11:18;0.65;;;0.65;;
27804;SDS011;15183;51.350;11.102;2022-10-15T15:13:48;2.65;;;0.60;;
27804;SDS011;15183;51.350;11.102;2022-10-15T15:16:16;1.10;;;1.00;;
27804;SDS011;15183;51.350;11.102;2022-10-15T15:18:45;0.68;;;0.68;;
27804;SDS011;15183;51.350;11.102;2022-10-15T15:21:14;1.17;;;1.08;;
27804;SDS011;15183;51.350;11.102;2022-10-15T15:23:45;3.17;;;1.95;;
27804;SDS011;15183;51.350;11.102;2022-10-15T15:26:29;2.28;;;1.92;;
27804;SDS011;15183;51.350;11.102;2022-10-15T15:28:56;1.65;;;1.55;;
27804;SDS011;15183;51.350;11.102;2022-10-15T15:31:22;1.88;;;1.70;;
27804;SDS011;15183;51.350;11.102;2022-10-15T15:33:49;1.88;;;1.38;;
27804;SDS011;15183;51.350;11.102;2022-10-15T15:36:16;0.88;;;0.60;;
27804;SDS011;15183;51.350;11.102;2022-10-15T15:38:47;0.95;;;0.75;;
27804;SDS011;15183;51.350;11.102;2022-10-15T15:41:14;0.70;;;0.70;;
27804;SDS011;15183;51.350;11.102;2022-10-15T15:43:44;3.22;;;1.10;;
27804;SDS011;15183;51.350;11.102;2022-10-15T15:46:11;1.35;;;0.70;;
27804;SDS011;15183;51.350;11.102;2022-10-15T15:48:40;0.60;;;0.60;;
27804;SDS011;15183;51.350;11.102;2022-10-15T15:51:28;1.08;;;0.40;;
27804;SDS011;15183;51.350;11.102;2022-10-15T15:53:56;1.05;;;1.00;;
27804;SDS011;15183;51.350;11.102;2022-10-15T15:56:24;1.10;;;1.00;;
27804;SDS011;15183;51.350;11.102;2022-10-15T15:58:50;0.90;;;0.85;;
27804;SDS011;15183;51.350;11.102;2022-10-15T16:01:20;0.60;;;0.60;;
27804;SDS011;15183;51.350;11.102;2022-10-15T16:03:55;0.40;;;0.40;;
27804;SDS011;15183;51.350;11.102;2022-10-15T16:06:22;1.65;;;0.70;;
27804;SDS011;15183;51.350;11.102;2022-10-15T16:08:51;0.40;;;0.40;;
27804;SDS011;15183;51.350;11.102;2022-10-15T16:11:18;0.55;;;0.55;;
27804;SDS011;15183;51.350;11.102;2022-10-15T16:13:45;0.70;;;0.60;;
27804;SDS011;15183;51.350;11.102;2022-10-15T16:16:12;1.10;;;0.60;;
27804;SDS011;15183;51.350;11.102;2022-10-15T16:18:41;1.90;;;1.70;;
27804;SDS011;15183;51.350;11.102;2022-10-15T16:21:08;0.60;;;0.60;;
27804;SDS011;15183;51.350;11.102;2022-10-15T16:23:34;0.70;;;0.70;;
27804;SDS011;15183;51.350;11.102;2022-10-15T16:26:01;2.95;;;1.88;;
27804;SDS011;15183;51.350;11.102;2022-10-15T16:28:39;0.80;;;0.80;;
27804;SDS011;15183;51.350;11.102;2022-10-15T16:31:26;0.80;;;0.70;;
27804;SDS011;15183;51.350;11.102;2022-10-15T16:34:02;1.25;;;0.60;;
27804;SDS011;15183;51.350;11.102;2022-10-15T16:36:29;1.13;;;0.88;;
27804;SDS011;15183;51.350;11.102;2022-10-15T16:38:56;3.85;;;1.75;;
27804;SDS011;15183;51.350;11.102;2022-10-15T16:41:23;4.97;;;2.33;;
27804;SDS011;15183;51.350;11.102;2022-10-15T16:43:50;4.18;;;2.60;;
27804;SDS011;15183;51.350;11.102;2022-10-15T16:46:16;2.40;;;1.33;;
27804;SDS011;15183;51.350;11.102;2022-10-15T16:48:44;1.00;;;0.82;;
27804;SDS011;15183;51.350;11.102;2022-10-15T16:51:16;0.50;;;0.50;;
27804;SDS011;15183;51.350;11.102;2022-10-15T16:53:43;0.90;;;0.80;;
27804;SDS011;15183;51.350;11.102;2022-10-15T16:56:15;0.93;;;0.90;;
27804;SDS011;15183;51.350;11.102;2022-10-15T16:58:43;1.38;;;0.90;;
27804;SDS011;15183;51.350;11.102;2022-10-15T17:01:11;1.52;;;0.98;;
27804;SDS011;15183;51.350;11.102;2022-10-15T17:03:40;0.80;;;0.80;;
27804;SDS011;15183;51.350;11.102;2022-10-15T17:06:08;3.53;;;2.20;;
27804;SDS011;15183;51.350;11.102;2022-10-15T17:11:18;6.93;;;4.95;;
27804;SDS011;15183;51.350;11.102;2022-10-15T17:13:46;4.20;;;3.80;;
27804;SDS011;15183;51.350;11.102;2022-10-15T17:16:19;3.33;;;2.42;;
27804;SDS011;15183;51.350;11.102;2022-10-15T17:18:52;3.15;;;2.20;;
27804;SDS011;15183;51.350;11.102;2022-10-15T17:21:21;5.13;;;3.42;;
27804;SDS011;15183;51.350;11.102;2022-10-15T17:23:51;2.45;;;1.70;;